sensor_id;sensor_type;location;lat;lon;timestamp;P1;durP1;ratioP1;P2;durP2;ratioP2
59016;SDS011;44800;55.600;38.134;2022-12-10T00:01:40;36.75;;;12.65;;
59016;SDS011;44800;55.600;38.134;2022-12-10T00:04:09;35.65;;;14.40;;
59016;SDS011;44800;55.600;38.134;2022-12-10T00:06:38;57.10;;;14.88;;
59016;SDS011;44800;55.600;38.134;2022-12-10T00:09:09;37.90;;;12.73;;
59016;SDS011;44800;55.600;38.134;2022-12-10T00:11:39;43.58;;;14.48;;
59016;SDS011;44800;55.600;38.134;2022-12-10T00:14:08;50.35;;;15.75;;
59016;SDS011;44800;55.600;38.134;2022-12-10T00:16:37;42.92;;;14.30;;
59016;SDS011;44800;55.600;38.134;2022-12-10T00:19:05;50.80;;;16.30;;
59016;SDS011;44800;55.600;38.134;2022-12-10T00:21:34;40.85;;;15.20;;
59016;SDS011;44800;55.600;38.134;2022-12-10T00:24:03;39.90;;;14.43;;
59016;SDS011;44800;55.600;38.134;2022-12-10T00:26:34;49.75;;;15.77;;
59016;SDS011;44800;55.600;38.134;2022-12-10T00:29:06;38.05;;;14.75;;
59016;SDS011;44800;55.600;38.134;2022-12-10T00:31:36;41.58;;;13.55;;
59016;SDS011;44800;55.600;38.134;2022-12-10T00:34:06;44.15;;;15.25;;
59016;SDS011;44800;55.600;38.134;2022-12-10T00:36:36;44.78;;;14.93;;
59016;SDS011;44800;55.600;38.134;2022-12-10T00:39:06;42.95;;;14.55;;
59016;SDS011;44800;55.600;38.134;2022-12-10T00:41:36;56.75;;;17.65;;
59016;SDS011;44800;55.600;38.134;2022-12-10T00:44:04;45.63;;;14.65;;
59016;SDS011;44800;55.600;38.134;2022-12-10T00:46:32;45.30;;;16.00;;
59016;SDS011;44800;55.600;38.134;2022-12-10T00:49:01;47.63;;;15.75;;
59016;SDS011;44800;55.600;38.134;2022-12-10T00:51:30;44.65;;;13.80;;
59016;SDS011;44800;55.600;38.134;2022-12-10T00:53:58;46.40;;;13.98;;
59016;SDS011;44800;55.600;38.134;2022-12-10T00:56:28;38.72;;;15.50;;
59016;SDS011;44800;55.600;38.134;2022-12-10T00:58:58;42.10;;;15.00;;
59016;SDS011;44800;55.600;38.134;2022-12-10T01:01:28;43.80;;;15.02;;
59016;SDS011;44800;55.600;38.134;2022-12-10T01:03:59;51.55;;;14.05;;
59016;SDS011;44800;55.600;38.134;2022-12-10T01:06:30;45.20;;;14.10;;
59016;SDS011;44800;55.600;38.134;2022-12-10T01:09:00;41.17;;;16.13;;
59016;SDS011;44800;55.600;38.134;2022-12-10T01:11:33;39.72;;;13.07;;
59016;SDS011;44800;55.600;38.134;2022-12-10T01:14:05;38.42;;;14.63;;
59016;SDS011;44800;55.600;38.134;2022-12-10T01:16:35;43.17;;;15.32;;
59016;SDS011;44800;55.600;38.134;2022-12-10T01:19:03;42.80;;;14.63;;
59016;SDS011;44800;55.600;38.134;2022-12-10T01:21:31;48.70;;;15.68;;
59016;SDS011;44800;55.600;38.134;2022-12-10T01:24:00;59.97;;;17.50;;
59016;SDS011;44800;55.600;38.134;2022-12-10T01:26:29;43.63;;;14.75;;
59016;SDS011;44800;55.600;38.134;2022-12-10T01:28:58;48.90;;;16.80;;
59016;SDS011;44800;55.600;38.134;2022-12-10T01:31:28;54.50;;;16.73;;
59016;SDS011;44800;55.600;38.134;2022-12-10T01:33:58;48.47;;;16.05;;
59016;SDS011;44800;55.600;38.134;2022-12-10T01:36:27;51.10;;;14.73;;
59016;SDS011;44800;55.600;38.134;2022-12-10T01:38:57;49.85;;;16.85;;
59016;SDS011;44800;55.600;38.134;2022-12-10T01:41:27;55.88;;;18.70;;
59016;SDS011;44800;55.600;38.134;2022-12-10T01:43:57;49.97;;;15.85;;
59016;SDS011;44800;55.600;38.134;2022-12-10T01:46:29;57.63;;;17.27;;
59016;SDS011;44800;55.600;38.134;2022-12-10T01:48:59;50.45;;;15.88;;
59016;SDS011;44800;55.600;38.134;2022-12-10T01:51:30;35.53;;;11.75;;
59016;SDS011;44800;55.600;38.134;2022-12-10T01:54:01;48.38;;;13.93;;
59016;SDS011;44800;55.600;38.134;2022-12-10T01:56:31;44.22;;;15.25;;
59016;SDS011;44800;55.600;38.134;2022-12-10T01:59:01;50.45;;;17.00;;
59016;SDS011;44800;55.600;38.134;2022-12-10T02:01:32;50.67;;;15.52;;
59016;SDS011;44800;55.600;38.134;2022-12-10T02:04:08;53.03;;;15.80;;
59016;SDS011;44800;55.600;38.134;2022-12-10T02:06:44;54.20;;;16.67;;
59016;SDS011;44800;55.600;38.134;2022-12-10T02:09:18;42.33;;;17.20;;
59016;SDS011;44800;55.600;38.134;2022-12-10T02:11:50;49.45;;;15.35;;
59016;SDS011;44800;55.600;38.134;2022-12-10T02:14:28;56.60;;;16.63;;
59016;SDS011;44800;55.600;38.134;2022-12-10T02:19:37;48.38;;;15.77;;
59016;SDS011;44800;55.600;38.134;2022-12-10T02:22:15;56.80;;;16.20;;
59016;SDS011;44800;55.600;38.134;2022-12-10T02:24:43;43.72;;;15.07;;
59016;SDS011;44800;55.600;38.134;2022-12-10T02:27:14;47.85;;;14.82;;
59016;SDS011;44800;55.600;38.134;2022-12-10T02:29:46;47.17;;;15.10;;
59016;SDS011;44800;55.600;38.134;2022-12-10T02:32:16;50.55;;;17.10;;
59016;SDS011;44800;55.600;38.134;2022-12-10T02:34:47;50.13;;;17.05;;
59016;SDS011;44800;55.600;38.134;2022-12-10T02:37:17;41.97;;;15.48;;
59016;SDS011;44800;55.600;38.134;2022-12-10T02:39:48;41.88;;;13.88;;
59016;SDS011;44800;55.600;38.134;2022-12-10T02:42:18;58.78;;;17.67;;
59016;SDS011;44800;55.600;38.134;2022-12-10T02:44:51;40.72;;;14.05;;
59016;SDS011;44800;55.600;38.134;2022-12-10T02:47:20;49.00;;;15.07;;
59016;SDS011;44800;55.600;38.134;2022-12-10T02:49:50;47.60;;;15.63;;
59016;SDS011;44800;55.600;38.134;2022-12-10T02:52:19;52.17;;;16.10;;
59016;SDS011;44800;55.600;38.134;2022-12-10T02:54:48;51.72;;;14.35;;
59016;SDS011;44800;55.600;38.134;2022-12-10T02:57:23;49.60;;;15.68;;
59016;SDS011;44800;55.600;38.134;2022-12-10T03:00:08;48.10;;;13.48;;
59016;SDS011;44800;55.600;38.134;2022-12-10T03:02:41;39.30;;;14.70;;
59016;SDS011;44800;55.600;38.134;2022-12-10T03:05:15;40.03;;;14.23;;
59016;SDS011;44800;55.600;38.134;2022-12-10T03:07:47;53.05;;;15.90;;
59016;SDS011;44800;55.600;38.134;2022-12-10T03:10:22;44.05;;;14.52;;
59016;SDS011;44800;55.600;38.134;2022-12-10T03:12:54;48.92;;;15.43;;
59016;SDS011;44800;55.600;38.134;2022-12-10T03:15:27;39.53;;;12.10;;
59016;SDS011;44800;55.600;38.134;2022-12-10T03:17:56;43.38;;;15.10;;
59016;SDS011;44800;55.600;38.134;2022-12-10T03:20:27;38.00;;;14.80;;
59016;SDS011;44800;55.600;38.134;2022-12-10T03:22:55;44.15;;;15.27;;
59016;SDS011;44800;55.600;38.134;2022-12-10T03:25:24;37.10;;;12.80;;
59016;SDS011;44800;55.600;38.134;2022-12-10T03:27:54;38.67;;;13.98;;
59016;SDS011;44800;55.600;38.134;2022-12-10T03:30:23;48.20;;;16.55;;
59016;SDS011;44800;55.600;38.134;2022-12-10T03:32:52;47.17;;;14.68;;
59016;SDS011;44800;55.600;38.134;2022-12-10T03:35:21;44.95;;;15.93;;
59016;SDS011;44800;55.600;38.134;2022-12-10T03:37:51;45.55;;;15.23;;
59016;SDS011;44800;55.600;38.134;2022-12-10T03:40:20;40.13;;;13.77;;
59016;SDS011;44800;55.600;38.134;2022-12-10T03:42:50;43.40;;;13.77;;
59016;SDS011;44800;55.600;38.134;2022-12-10T03:45:19;41.88;;;15.35;;
59016;SDS011;44800;55.600;38.134;2022-12-10T03:47:47;46.60;;;14.45;;
59016;SDS011;44800;55.600;38.134;2022-12-10T03:50:17;49.03;;;13.77;;
59016;SDS011;44800;55.600;38.134;2022-12-10T03:52:45;45.83;;;14.57;;
59016;SDS011;44800;55.600;38.134;2022-12-10T03:55:14;41.42;;;12.90;;
59016;SDS011;44800;55.600;38.134;2022-12-10T03:57:42;40.53;;;15.07;;
59016;SDS011;44800;55.600;38.134;2022-12-10T04:00:11;37.40;;;14.35;;
59016;SDS011;44800;55.600;38.134;2022-12-10T04:02:40;33.33;;;12.77;;
59016;SDS011;44800;55.600;38.134;2022-12-10T04:05:08;34.63;;;12.63;;
59016;SDS011;44800;55.600;38.134;2022-12-10T04:07:37;36.65;;;13.32;;
59016;SDS011;44800;55.600;38.134;2022-12-10T04:10:07;37.75;;;12.93;;
59016;SDS011;44800;55.600;38.134;2022-12-10T04:12:36;36.53;;;11.57;;
59016;SDS011;44800;55.600;38.134;2022-12-10T04:15:05;33.88;;;13.57;;
59016;SDS011;44800;55.600;38.134;2022-12-10T04:17:52;43.00;;;12.98;;
59016;SDS011;44800;55.600;38.134;2022-12-10T04:20:20;40.10;;;13.38;;
59016;SDS011;44800;55.600;38.134;2022-12-10T04:23:08;40.88;;;12.93;;
59016;SDS011;44800;55.600;38.134;2022-12-10T04:25:54;41.20;;;13.13;;
59016;SDS011;44800;55.600;38.134;2022-12-10T04:28:39;37.45;;;12.93;;
59016;SDS011;44800;55.600;38.134;2022-12-10T04:31:08;36.10;;;12.73;;
59016;SDS011;44800;55.600;38.134;2022-12-10T04:33:36;41.40;;;11.73;;
59016;SDS011;44800;55.600;38.134;2022-12-10T04:36:04;33.58;;;13.20;;
59016;SDS011;44800;55.600;38.134;2022-12-10T04:38:34;35.60;;;12.10;;
59016;SDS011;44800;55.600;38.134;2022-12-10T04:41:04;36.28;;;12.50;;
59016;SDS011;44800;55.600;38.134;2022-12-10T04:43:41;38.25;;;11.10;;
59016;SDS011;44800;55.600;38.134;2022-12-10T04:46:10;33.28;;;11.90;;
59016;SDS011;44800;55.600;38.134;2022-12-10T04:48:39;32.95;;;12.13;;
59016;SDS011;44800;55.600;38.134;2022-12-10T04:51:07;34.88;;;12.20;;
59016;SDS011;44800;55.600;38.134;2022-12-10T04:53:37;41.55;;;12.35;;
59016;SDS011;44800;55.600;38.134;2022-12-10T04:56:05;39.65;;;13.18;;
59016;SDS011;44800;55.600;38.134;2022-12-10T04:58:34;35.92;;;11.73;;
59016;SDS011;44800;55.600;38.134;2022-12-10T05:01:02;32.83;;;11.63;;
59016;SDS011;44800;55.600;38.134;2022-12-10T05:03:31;37.20;;;13.20;;
59016;SDS011;44800;55.600;38.134;2022-12-10T05:06:00;36.92;;;12.35;;
59016;SDS011;44800;55.600;38.134;2022-12-10T05:08:29;38.10;;;12.18;;
59016;SDS011;44800;55.600;38.134;2022-12-10T05:11:02;36.25;;;13.68;;
59016;SDS011;44800;55.600;38.134;2022-12-10T05:13:31;40.20;;;12.77;;
59016;SDS011;44800;55.600;38.134;2022-12-10T05:16:02;30.95;;;13.65;;
59016;SDS011;44800;55.600;38.134;2022-12-10T05:18:31;34.33;;;10.77;;
59016;SDS011;44800;55.600;38.134;2022-12-10T05:20:59;35.22;;;13.52;;
59016;SDS011;44800;55.600;38.134;2022-12-10T05:23:32;48.85;;;19.05;;
59016;SDS011;44800;55.600;38.134;2022-12-10T05:26:02;33.55;;;12.52;;
59016;SDS011;44800;55.600;38.134;2022-12-10T05:28:32;37.28;;;12.45;;
59016;SDS011;44800;55.600;38.134;2022-12-10T05:31:01;40.35;;;13.57;;
59016;SDS011;44800;55.600;38.134;2022-12-10T05:33:30;36.70;;;13.30;;
59016;SDS011;44800;55.600;38.134;2022-12-10T05:36:00;42.50;;;12.98;;
59016;SDS011;44800;55.600;38.134;2022-12-10T05:38:30;35.70;;;11.55;;
59016;SDS011;44800;55.600;38.134;2022-12-10T05:41:02;48.70;;;13.18;;
59016;SDS011;44800;55.600;38.134;2022-12-10T05:43:31;30.25;;;12.18;;
59016;SDS011;44800;55.600;38.134;2022-12-10T05:46:00;38.25;;;13.25;;
59016;SDS011;44800;55.600;38.134;2022-12-10T05:48:29;40.53;;;12.20;;
59016;SDS011;44800;55.600;38.134;2022-12-10T05:50:57;39.42;;;13.18;;
59016;SDS011;44800;55.600;38.134;2022-12-10T05:53:25;34.08;;;13.15;;
59016;SDS011;44800;55.600;38.134;2022-12-10T05:55:58;40.58;;;13.20;;
59016;SDS011;44800;55.600;38.134;2022-12-10T05:58:29;34.33;;;11.38;;
59016;SDS011;44800;55.600;38.134;2022-12-10T06:00:57;45.90;;;13.23;;
59016;SDS011;44800;55.600;38.134;2022-12-10T06:03:26;42.97;;;11.82;;
59016;SDS011;44800;55.600;38.134;2022-12-10T06:05:55;34.22;;;12.45;;
59016;SDS011;44800;55.600;38.134;2022-12-10T06:08:23;27.80;;;10.90;;
59016;SDS011;44800;55.600;38.134;2022-12-10T06:10:52;31.35;;;11.85;;
59016;SDS011;44800;55.600;38.134;2022-12-10T06:13:20;34.00;;;11.75;;
59016;SDS011;44800;55.600;38.134;2022-12-10T06:15:51;38.65;;;13.32;;
59016;SDS011;44800;55.600;38.134;2022-12-10T06:18:19;30.00;;;12.10;;
59016;SDS011;44800;55.600;38.134;2022-12-10T06:20:47;40.25;;;13.15;;
59016;SDS011;44800;55.600;38.134;2022-12-10T06:23:16;39.45;;;12.82;;
59016;SDS011;44800;55.600;38.134;2022-12-10T06:25:44;30.33;;;11.68;;
59016;SDS011;44800;55.600;38.134;2022-12-10T06:28:12;39.00;;;13.18;;
59016;SDS011;44800;55.600;38.134;2022-12-10T06:30:40;29.15;;;11.38;;
59016;SDS011;44800;55.600;38.134;2022-12-10T06:33:10;41.92;;;11.68;;
59016;SDS011;44800;55.600;38.134;2022-12-10T06:35:39;40.03;;;12.55;;
59016;SDS011;44800;55.600;38.134;2022-12-10T06:38:07;46.03;;;12.70;;
59016;SDS011;44800;55.600;38.134;2022-12-10T06:40:38;35.45;;;12.70;;
59016;SDS011;44800;55.600;38.134;2022-12-10T06:43:07;43.85;;;13.63;;
59016;SDS011;44800;55.600;38.134;2022-12-10T06:45:37;48.92;;;13.77;;
59016;SDS011;44800;55.600;38.134;2022-12-10T06:48:06;44.78;;;16.15;;
59016;SDS011;44800;55.600;38.134;2022-12-10T06:50:36;33.33;;;13.82;;
59016;SDS011;44800;55.600;38.134;2022-12-10T06:53:05;40.30;;;13.25;;
59016;SDS011;44800;55.600;38.134;2022-12-10T06:55:33;45.22;;;14.63;;
59016;SDS011;44800;55.600;38.134;2022-12-10T06:58:04;43.30;;;13.93;;
59016;SDS011;44800;55.600;38.134;2022-12-10T07:00:32;38.90;;;13.13;;
59016;SDS011;44800;55.600;38.134;2022-12-10T07:03:00;46.95;;;12.80;;
59016;SDS011;44800;55.600;38.134;2022-12-10T07:05:29;40.40;;;14.00;;
59016;SDS011;44800;55.600;38.134;2022-12-10T07:07:58;36.25;;;12.90;;
59016;SDS011;44800;55.600;38.134;2022-12-10T07:10:27;33.78;;;12.52;;
59016;SDS011;44800;55.600;38.134;2022-12-10T07:12:55;37.38;;;12.30;;
59016;SDS011;44800;55.600;38.134;2022-12-10T07:15:24;35.25;;;11.98;;
59016;SDS011;44800;55.600;38.134;2022-12-10T07:17:54;44.85;;;14.02;;
59016;SDS011;44800;55.600;38.134;2022-12-10T07:20:23;43.42;;;12.88;;
59016;SDS011;44800;55.600;38.134;2022-12-10T07:22:51;45.15;;;14.05;;
59016;SDS011;44800;55.600;38.134;2022-12-10T07:25:21;39.53;;;14.45;;
59016;SDS011;44800;55.600;38.134;2022-12-10T07:27:50;42.65;;;12.43;;
59016;SDS011;44800;55.600;38.134;2022-12-10T07:30:23;35.13;;;12.43;;
59016;SDS011;44800;55.600;38.134;2022-12-10T07:32:51;42.90;;;12.80;;
59016;SDS011;44800;55.600;38.134;2022-12-10T07:35:20;39.60;;;12.93;;
59016;SDS011;44800;55.600;38.134;2022-12-10T07:37:48;41.88;;;12.50;;
59016;SDS011;44800;55.600;38.134;2022-12-10T07:40:17;40.22;;;13.60;;
59016;SDS011;44800;55.600;38.134;2022-12-10T07:42:46;49.90;;;13.93;;
59016;SDS011;44800;55.600;38.134;2022-12-10T07:45:15;40.83;;;12.75;;
59016;SDS011;44800;55.600;38.134;2022-12-10T07:47:43;62.08;;;20.08;;
59016;SDS011;44800;55.600;38.134;2022-12-10T07:50:11;46.03;;;13.43;;
59016;SDS011;44800;55.600;38.134;2022-12-10T07:52:40;51.83;;;13.55;;
59016;SDS011;44800;55.600;38.134;2022-12-10T07:55:08;58.60;;;14.05;;
59016;SDS011;44800;55.600;38.134;2022-12-10T07:57:39;45.58;;;11.63;;
59016;SDS011;44800;55.600;38.134;2022-12-10T08:00:10;52.08;;;13.82;;
59016;SDS011;44800;55.600;38.134;2022-12-10T08:02:39;46.10;;;14.57;;
59016;SDS011;44800;55.600;38.134;2022-12-10T08:05:08;46.15;;;14.07;;
59016;SDS011;44800;55.600;38.134;2022-12-10T08:07:37;41.33;;;14.80;;
59016;SDS011;44800;55.600;38.134;2022-12-10T08:10:05;49.75;;;13.95;;
59016;SDS011;44800;55.600;38.134;2022-12-10T08:12:35;44.03;;;12.98;;
59016;SDS011;44800;55.600;38.134;2022-12-10T08:15:05;56.15;;;14.98;;
59016;SDS011;44800;55.600;38.134;2022-12-10T08:17:36;45.33;;;13.40;;
59016;SDS011;44800;55.600;38.134;2022-12-10T08:20:04;50.92;;;14.05;;
59016;SDS011;44800;55.600;38.134;2022-12-10T08:22:34;51.00;;;15.55;;
59016;SDS011;44800;55.600;38.134;2022-12-10T08:25:03;56.72;;;14.60;;
59016;SDS011;44800;55.600;38.134;2022-12-10T08:27:32;44.97;;;13.02;;
59016;SDS011;44800;55.600;38.134;2022-12-10T08:30:01;39.25;;;14.75;;
59016;SDS011;44800;55.600;38.134;2022-12-10T08:32:29;63.97;;;15.13;;
59016;SDS011;44800;55.600;38.134;2022-12-10T08:34:59;57.10;;;15.73;;
59016;SDS011;44800;55.600;38.134;2022-12-10T08:37:28;51.35;;;13.70;;
59016;SDS011;44800;55.600;38.134;2022-12-10T08:39:56;57.83;;;16.38;;
59016;SDS011;44800;55.600;38.134;2022-12-10T08:42:25;47.88;;;15.43;;
59016;SDS011;44800;55.600;38.134;2022-12-10T08:44:53;51.80;;;14.18;;
59016;SDS011;44800;55.600;38.134;2022-12-10T08:47:22;58.40;;;15.27;;
59016;SDS011;44800;55.600;38.134;2022-12-10T08:49:50;50.88;;;15.00;;
59016;SDS011;44800;55.600;38.134;2022-12-10T08:52:20;58.13;;;15.55;;
59016;SDS011;44800;55.600;38.134;2022-12-10T08:54:48;57.90;;;19.73;;
59016;SDS011;44800;55.600;38.134;2022-12-10T08:57:16;79.60;;;20.63;;
59016;SDS011;44800;55.600;38.134;2022-12-10T08:59:45;71.18;;;22.27;;
59016;SDS011;44800;55.600;38.134;2022-12-10T09:02:14;57.03;;;15.10;;
59016;SDS011;44800;55.600;38.134;2022-12-10T09:04:43;64.38;;;14.75;;
59016;SDS011;44800;55.600;38.134;2022-12-10T09:07:12;69.53;;;17.20;;
59016;SDS011;44800;55.600;38.134;2022-12-10T09:09:42;68.07;;;14.48;;
59016;SDS011;44800;55.600;38.134;2022-12-10T09:12:10;60.50;;;16.65;;
59016;SDS011;44800;55.600;38.134;2022-12-10T09:14:38;58.75;;;16.38;;
59016;SDS011;44800;55.600;38.134;2022-12-10T09:17:09;62.30;;;16.70;;
59016;SDS011;44800;55.600;38.134;2022-12-10T09:19:37;55.65;;;17.20;;
59016;SDS011;44800;55.600;38.134;2022-12-10T09:22:06;68.53;;;17.60;;
59016;SDS011;44800;55.600;38.134;2022-12-10T09:24:35;61.47;;;18.35;;
59016;SDS011;44800;55.600;38.134;2022-12-10T09:27:05;79.75;;;18.95;;
59016;SDS011;44800;55.600;38.134;2022-12-10T09:29:33;64.05;;;18.25;;
59016;SDS011;44800;55.600;38.134;2022-12-10T09:32:01;62.25;;;18.50;;
59016;SDS011;44800;55.600;38.134;2022-12-10T09:34:30;80.43;;;19.52;;
59016;SDS011;44800;55.600;38.134;2022-12-10T09:36:59;70.38;;;17.95;;
59016;SDS011;44800;55.600;38.134;2022-12-10T09:39:27;70.45;;;18.30;;
59016;SDS011;44800;55.600;38.134;2022-12-10T09:42:02;68.68;;;16.58;;
59016;SDS011;44800;55.600;38.134;2022-12-10T09:44:43;62.45;;;16.33;;
59016;SDS011;44800;55.600;38.134;2022-12-10T09:47:14;61.30;;;18.08;;
59016;SDS011;44800;55.600;38.134;2022-12-10T09:49:49;69.20;;;19.13;;
59016;SDS011;44800;55.600;38.134;2022-12-10T09:52:22;66.72;;;17.33;;
59016;SDS011;44800;55.600;38.134;2022-12-10T09:54:52;38.45;;;15.95;;
59016;SDS011;44800;55.600;38.134;2022-12-10T09:57:24;64.38;;;17.20;;
59016;SDS011;44800;55.600;38.134;2022-12-10T09:59:55;67.38;;;18.88;;
59016;SDS011;44800;55.600;38.134;2022-12-10T10:02:24;68.47;;;19.55;;
59016;SDS011;44800;55.600;38.134;2022-12-10T10:04:56;76.78;;;19.08;;
59016;SDS011;44800;55.600;38.134;2022-12-10T10:07:30;68.53;;;18.70;;
59016;SDS011;44800;55.600;38.134;2022-12-10T10:10:00;72.78;;;16.58;;
59016;SDS011;44800;55.600;38.134;2022-12-10T10:12:33;75.15;;;17.95;;
59016;SDS011;44800;55.600;38.134;2022-12-10T10:15:09;71.88;;;18.50;;
59016;SDS011;44800;55.600;38.134;2022-12-10T10:17:41;69.82;;;16.88;;
59016;SDS011;44800;55.600;38.134;2022-12-10T10:20:13;64.07;;;18.52;;
59016;SDS011;44800;55.600;38.134;2022-12-10T10:22:41;66.45;;;18.08;;
59016;SDS011;44800;55.600;38.134;2022-12-10T10:25:12;79.35;;;19.45;;
59016;SDS011;44800;55.600;38.134;2022-12-10T10:27:43;73.75;;;19.58;;
59016;SDS011;44800;55.600;38.134;2022-12-10T10:30:13;77.15;;;18.92;;
59016;SDS011;44800;55.600;38.134;2022-12-10T10:32:46;75.80;;;16.63;;
59016;SDS011;44800;55.600;38.134;2022-12-10T10:35:26;63.80;;;16.63;;
59016;SDS011;44800;55.600;38.134;2022-12-10T10:37:59;73.85;;;16.77;;
59016;SDS011;44800;55.600;38.134;2022-12-10T10:40:30;61.38;;;17.77;;
59016;SDS011;44800;55.600;38.134;2022-12-10T10:43:01;45.03;;;16.50;;
59016;SDS011;44800;55.600;38.134;2022-12-10T10:45:31;72.70;;;17.45;;
59016;SDS011;44800;55.600;38.134;2022-12-10T10:48:05;67.43;;;17.42;;
59016;SDS011;44800;55.600;38.134;2022-12-10T10:50:39;56.53;;;15.60;;
59016;SDS011;44800;55.600;38.134;2022-12-10T10:53:25;60.63;;;16.80;;
59016;SDS011;44800;55.600;38.134;2022-12-10T10:55:55;72.80;;;17.95;;
59016;SDS011;44800;55.600;38.134;2022-12-10T10:58:27;72.60;;;19.67;;
59016;SDS011;44800;55.600;38.134;2022-12-10T11:00:57;74.50;;;17.92;;
59016;SDS011;44800;55.600;38.134;2022-12-10T11:03:27;55.13;;;15.35;;
59016;SDS011;44800;55.600;38.134;2022-12-10T11:05:57;57.95;;;16.83;;
59016;SDS011;44800;55.600;38.134;2022-12-10T11:08:28;63.40;;;18.05;;
59016;SDS011;44800;55.600;38.134;2022-12-10T11:10:59;51.15;;;16.90;;
59016;SDS011;44800;55.600;38.134;2022-12-10T11:13:33;67.95;;;16.83;;
59016;SDS011;44800;55.600;38.134;2022-12-10T11:16:09;72.72;;;25.55;;
59016;SDS011;44800;55.600;38.134;2022-12-10T11:18:40;69.18;;;17.80;;
59016;SDS011;44800;55.600;38.134;2022-12-10T11:21:16;62.90;;;17.52;;
59016;SDS011;44800;55.600;38.134;2022-12-10T11:23:47;59.92;;;15.57;;
59016;SDS011;44800;55.600;38.134;2022-12-10T11:29:23;66.00;;;14.80;;
59016;SDS011;44800;55.600;38.134;2022-12-10T11:34:52;58.58;;;15.13;;
59016;SDS011;44800;55.600;38.134;2022-12-10T11:37:29;49.67;;;16.60;;
59016;SDS011;44800;55.600;38.134;2022-12-10T11:43:05;47.85;;;13.63;;
59016;SDS011;44800;55.600;38.134;2022-12-10T11:45:54;40.72;;;13.32;;
59016;SDS011;44800;55.600;38.134;2022-12-10T11:48:32;48.20;;;13.65;;
59016;SDS011;44800;55.600;38.134;2022-12-10T11:51:08;55.03;;;14.73;;
59016;SDS011;44800;55.600;38.134;2022-12-10T11:53:45;44.53;;;13.93;;
59016;SDS011;44800;55.600;38.134;2022-12-10T11:56:21;76.05;;;24.00;;
59016;SDS011;44800;55.600;38.134;2022-12-10T11:59:01;49.15;;;14.48;;
59016;SDS011;44800;55.600;38.134;2022-12-10T12:01:38;48.05;;;14.45;;
59016;SDS011;44800;55.600;38.134;2022-12-10T12:04:18;52.15;;;15.73;;
59016;SDS011;44800;55.600;38.134;2022-12-10T12:09:54;45.55;;;14.95;;
59016;SDS011;44800;55.600;38.134;2022-12-10T12:12:34;45.90;;;13.95;;
59016;SDS011;44800;55.600;38.134;2022-12-10T12:15:12;44.78;;;14.55;;
59016;SDS011;44800;55.600;38.134;2022-12-10T12:17:45;58.70;;;15.75;;
59016;SDS011;44800;55.600;38.134;2022-12-10T12:20:17;53.40;;;16.70;;
59016;SDS011;44800;55.600;38.134;2022-12-10T12:22:51;56.63;;;14.82;;
59016;SDS011;44800;55.600;38.134;2022-12-10T12:25:23;51.15;;;14.63;;
59016;SDS011;44800;55.600;38.134;2022-12-10T12:27:55;48.63;;;15.25;;
59016;SDS011;44800;55.600;38.134;2022-12-10T12:30:27;46.60;;;14.95;;
59016;SDS011;44800;55.600;38.134;2022-12-10T12:32:57;51.85;;;16.25;;
59016;SDS011;44800;55.600;38.134;2022-12-10T12:35:30;56.35;;;15.50;;
59016;SDS011;44800;55.600;38.134;2022-12-10T12:38:06;53.78;;;14.77;;
59016;SDS011;44800;55.600;38.134;2022-12-10T12:40:45;49.83;;;15.32;;
59016;SDS011;44800;55.600;38.134;2022-12-10T12:43:19;52.55;;;16.02;;
59016;SDS011;44800;55.600;38.134;2022-12-10T12:45:51;47.72;;;15.73;;
59016;SDS011;44800;55.600;38.134;2022-12-10T12:48:24;53.60;;;18.65;;
59016;SDS011;44800;55.600;38.134;2022-12-10T12:50:59;48.90;;;16.35;;
59016;SDS011;44800;55.600;38.134;2022-12-10T12:53:28;54.80;;;17.15;;
59016;SDS011;44800;55.600;38.134;2022-12-10T12:56:02;51.70;;;16.70;;
59016;SDS011;44800;55.600;38.134;2022-12-10T12:58:34;53.33;;;16.95;;
59016;SDS011;44800;55.600;38.134;2022-12-10T13:01:08;54.40;;;18.42;;
59016;SDS011;44800;55.600;38.134;2022-12-10T13:03:44;58.22;;;15.80;;
59016;SDS011;44800;55.600;38.134;2022-12-10T13:06:18;66.53;;;20.48;;
59016;SDS011;44800;55.600;38.134;2022-12-10T13:08:50;48.70;;;15.48;;
59016;SDS011;44800;55.600;38.134;2022-12-10T13:11:29;51.72;;;15.32;;
59016;SDS011;44800;55.600;38.134;2022-12-10T13:14:04;53.47;;;15.25;;
59016;SDS011;44800;55.600;38.134;2022-12-10T13:16:48;35.50;;;13.73;;
59016;SDS011;44800;55.600;38.134;2022-12-10T13:19:26;50.50;;;16.08;;
59016;SDS011;44800;55.600;38.134;2022-12-10T13:21:57;49.97;;;16.77;;
59016;SDS011;44800;55.600;38.134;2022-12-10T13:24:44;40.03;;;13.40;;
59016;SDS011;44800;55.600;38.134;2022-12-10T13:27:40;48.45;;;13.90;;
59016;SDS011;44800;55.600;38.134;2022-12-10T13:30:25;52.42;;;14.50;;
59016;SDS011;44800;55.600;38.134;2022-12-10T13:33:14;46.08;;;15.57;;
59016;SDS011;44800;55.600;38.134;2022-12-10T13:35:50;52.85;;;15.60;;
59016;SDS011;44800;55.600;38.134;2022-12-10T13:38:38;55.33;;;15.32;;
59016;SDS011;44800;55.600;38.134;2022-12-10T13:41:08;47.75;;;15.90;;
59016;SDS011;44800;55.600;38.134;2022-12-10T13:43:57;38.80;;;13.27;;
59016;SDS011;44800;55.600;38.134;2022-12-10T13:46:51;59.72;;;18.33;;
59016;SDS011;44800;55.600;38.134;2022-12-10T13:49:22;50.35;;;15.73;;
59016;SDS011;44800;55.600;38.134;2022-12-10T13:51:59;43.53;;;13.73;;
59016;SDS011;44800;55.600;38.134;2022-12-10T13:57:56;42.03;;;13.32;;
59016;SDS011;44800;55.600;38.134;2022-12-10T14:00:32;29.00;;;11.90;;
59016;SDS011;44800;55.600;38.134;2022-12-10T14:03:09;40.03;;;11.00;;
59016;SDS011;44800;55.600;38.134;2022-12-10T14:06:06;35.83;;;14.85;;
59016;SDS011;44800;55.600;38.134;2022-12-10T14:08:45;39.85;;;14.63;;
59016;SDS011;44800;55.600;38.134;2022-12-10T14:11:22;35.50;;;13.55;;
59016;SDS011;44800;55.600;38.134;2022-12-10T14:13:53;44.33;;;16.35;;
59016;SDS011;44800;55.600;38.134;2022-12-10T14:16:26;47.83;;;13.85;;
59016;SDS011;44800;55.600;38.134;2022-12-10T14:18:57;41.15;;;14.38;;
59016;SDS011;44800;55.600;38.134;2022-12-10T14:21:31;49.42;;;14.35;;
59016;SDS011;44800;55.600;38.134;2022-12-10T14:24:02;47.92;;;12.82;;
59016;SDS011;44800;55.600;38.134;2022-12-10T14:26:31;42.72;;;12.80;;
59016;SDS011;44800;55.600;38.134;2022-12-10T14:29:01;49.90;;;13.68;;
59016;SDS011;44800;55.600;38.134;2022-12-10T14:31:37;32.88;;;13.50;;
59016;SDS011;44800;55.600;38.134;2022-12-10T14:34:08;49.20;;;14.73;;
59016;SDS011;44800;55.600;38.134;2022-12-10T14:36:39;33.20;;;11.60;;
59016;SDS011;44800;55.600;38.134;2022-12-10T14:39:13;37.72;;;12.63;;
59016;SDS011;44800;55.600;38.134;2022-12-10T14:41:42;37.30;;;13.57;;
59016;SDS011;44800;55.600;38.134;2022-12-10T14:44:12;51.58;;;16.67;;
59016;SDS011;44800;55.600;38.134;2022-12-10T14:46:43;31.60;;;12.15;;
59016;SDS011;44800;55.600;38.134;2022-12-10T14:49:16;37.20;;;13.43;;
59016;SDS011;44800;55.600;38.134;2022-12-10T14:51:45;37.88;;;11.75;;